Time;durP1;ratioP1;P1;durP2;ratioP2;P2;SDS_P1;SDS_P2;PMS_P1;PMS_P2;Temp;Humidity;BMP_temperature;BMP_pressure;BME280_temperature;BME280_humidity;BME280_pressure;Samples;Min_cycle;Max_cycle;Signal;HPM_P1;HPM_P2
2023/10/01 00:01:46;;;;;;;;;;;13.60;71.30;;;;;;4090415;28;19918;-90
2023/10/01 00:03:55;;;;;;;;;;;13.70;71.30;;;;;;4086669;28;19922;-89
2023/10/01 00:06:09;;;;;;;;;;;13.70;71.40;;;;;;4088959;28;19994;-89
2023/10/01 00:08:17;;;;;;;;;;;13.80;72.10;;;;;;4107981;28;19918;-89
2023/10/01 00:13:02;;;;;;;;;;;13.70;71.90;;;;;;4106380;28;19925;-88
2023/10/01 00:15:13;;;;;;;;;;;13.70;72.00;;;;;;4121184;28;19946;-88
2023/10/01 00:17:35;;;;;;;;;;;13.70;71.90;;;;;;4091283;28;19929;-89
2023/10/01 00:19:45;;;;;;;;;;;13.70;72.10;;;;;;4099762;28;19922;-89
2023/10/01 00:21:52;;;;;;;;;;;13.70;72.10;;;;;;4075426;29;19919;-89
2023/10/01 00:27:17;;;;;;;;;;;13.70;71.70;;;;;;4106515;28;19925;-89
2023/10/01 00:29:31;;;;;;;;;;;13.70;71.80;;;;;;4137586;22;20003;-86
2023/10/01 00:31:51;;;;;;;;;;;13.50;71.80;;;;;;4145422;28;20365;-86
2023/10/01 00:34:03;;;;;;;;;;;13.60;71.90;;;;;;4131149;28;19913;-87
2023/10/01 00:36:23;;;;;;;;;;;13.60;71.70;;;;;;4150893;28;20319;-86
2023/10/01 00:38:45;;;;;;;;;;;13.70;72.10;;;;;;4135085;28;20398;-86
2023/10/01 00:41:08;;;;;;;;;;;13.60;72.20;;;;;;4151455;28;20414;-86
2023/10/01 00:43:29;;;;;;;;;;;13.60;72.10;;;;;;4136841;28;20291;-87
2023/10/01 00:45:50;;;;;;;;;;;13.70;72.50;;;;;;4131381;28;20762;-87
2023/10/01 00:48:14;;;;;;;;;;;13.70;72.60;;;;;;4144564;28;19921;-87
2023/10/01 00:50:35;;;;;;;;;;;13.60;72.60;;;;;;4133495;28;20098;-86
2023/10/01 00:52:58;;;;;;;;;;;13.60;72.70;;;;;;4150703;28;20298;-87
2023/10/01 00:55:20;;;;;;;;;;;13.60;72.50;;;;;;4134817;28;20054;-86
2023/10/01 00:57:41;;;;;;;;;;;13.60;72.50;;;;;;4148448;28;20429;-87
2023/10/01 00:59:43;;;;;;;;;;;13.60;72.50;;;;;;4137013;28;20020;-87
2023/10/01 01:01:44;;;;;;;;;;;13.70;73.00;;;;;;4147217;28;19917;-87
2023/10/01 01:03:50;;;;;;;;;;;13.60;72.70;;;;;;4136227;28;20012;-87
2023/10/01 01:08:20;;;;;;;;;;;13.60;72.70;;;;;;4153562;28;20389;-87
2023/10/01 01:10:26;;;;;;;;;;;13.60;72.60;;;;;;4148694;28;19932;-87
2023/10/01 01:12:27;;;;;;;;;;;13.60;72.70;;;;;;4150608;28;20031;-87
2023/10/01 01:14:27;;;;;;;;;;;13.60;72.60;;;;;;4134523;28;20326;-87
2023/10/01 01:16:29;;;;;;;;;;;13.70;72.60;;;;;;4135577;28;20004;-86
2023/10/01 01:18:34;;;;;;;;;;;13.80;72.50;;;;;;4121191;28;19925;-87
2023/10/01 01:20:37;;;;;;;;;;;13.70;72.40;;;;;;4149476;28;20344;-87
2023/10/01 01:22:39;;;;;;;;;;;13.80;72.80;;;;;;4135940;28;19921;-86
2023/10/01 01:24:39;;;;;;;;;;;13.70;72.80;;;;;;4151692;28;19948;-86
2023/10/01 01:26:43;;;;;;;;;;;13.70;72.80;;;;;;4134865;28;20576;-87
2023/10/01 01:28:43;;;;;;;;;;;13.70;72.70;;;;;;4134196;28;20453;-87
2023/10/01 01:30:47;;;;;;;;;;;13.70;72.90;;;;;;4136395;28;19921;-87
2023/10/01 01:32:47;;;;;;;;;;;13.80;73.10;;;;;;4135458;28;19925;-87
2023/10/01 01:34:50;;;;;;;;;;;13.70;72.80;;;;;;4149641;28;19924;-87
2023/10/01 01:37:08;;;;;;;;;;;13.70;73.10;;;;;;4137547;28;20424;-87
2023/10/01 01:39:35;;;;;;;;;;;13.70;73.50;;;;;;4152800;28;20377;-88
2023/10/01 01:41:42;;;;;;;;;;;13.70;73.00;;;;;;4133268;28;20385;-87
2023/10/01 01:44:02;;;;;;;;;;;13.80;73.10;;;;;;4147443;28;20321;-87
2023/10/01 01:46:23;;;;;;;;;;;13.70;72.90;;;;;;4137342;28;20300;-86
2023/10/01 01:48:51;;;;;;;;;;;13.70;72.70;;;;;;4133716;28;20461;-87
2023/10/01 01:51:13;;;;;;;;;;;13.60;72.70;;;;;;4150671;28;20295;-87
2023/10/01 01:53:41;;;;;;;;;;;13.70;72.90;;;;;;4134202;28;20255;-87
2023/10/01 01:56:07;;;;;;;;;;;13.70;73.60;;;;;;4146252;28;20290;-87
2023/10/01 01:58:29;;;;;;;;;;;13.80;73.90;;;;;;4135918;28;20378;-86
2023/10/01 02:00:31;;;;;;;;;;;13.80;74.40;;;;;;4149811;28;19936;-87
2023/10/01 02:02:59;;;;;;;;;;;13.70;73.90;;;;;;4135847;28;19921;-86
2023/10/01 02:05:22;;;;;;;;;;;13.60;73.40;;;;;;4151228;28;20493;-86
2023/10/01 02:07:45;;;;;;;;;;;13.70;73.80;;;;;;4140184;28;20568;-87
2023/10/01 02:10:09;;;;;;;;;;;13.70;73.80;;;;;;4140495;28;20269;-86
2023/10/01 02:12:30;;;;;;;;;;;13.70;74.10;;;;;;4148375;28;20267;-87
2023/10/01 02:14:54;;;;;;;;;;;13.70;73.90;;;;;;4137625;28;20031;-86
2023/10/01 02:17:15;;;;;;;;;;;13.70;74.00;;;;;;4149812;28;20441;-87
2023/10/01 02:19:36;;;;;;;;;;;13.70;74.10;;;;;;4150687;28;20497;-87
2023/10/01 02:22:00;;;;;;;;;;;13.70;74.30;;;;;;4128356;28;19921;-87
2023/10/01 02:24:00;;;;;;;;;;;13.70;74.10;;;;;;4139279;28;20678;-87
2023/10/01 02:26:01;;;;;;;;;;;13.70;74.20;;;;;;4138143;28;19913;-87
2023/10/01 02:28:13;;;;;;;;;;;13.70;74.10;;;;;;4149217;28;19917;-86
2023/10/01 02:30:16;;;;;;;;;;;13.70;73.90;;;;;;4133254;28;20299;-86
2023/10/01 02:32:17;;;;;;;;;;;13.70;74.20;;;;;;4148431;28;20430;-86
2023/10/01 02:34:19;;;;;;;;;;;13.70;74.60;;;;;;4121224;28;20000;-86
2023/10/01 02:36:23;;;;;;;;;;;13.70;74.80;;;;;;4136608;28;19950;-87
2023/10/01 02:40:48;;;;;;;;;;;13.70;74.10;;;;;;4155929;28;19936;-86
2023/10/01 02:42:56;;;;;;;;;;;13.70;74.10;;;;;;4153676;28;20234;-87
2023/10/01 02:44:58;;;;;;;;;;;13.80;74.10;;;;;;4115278;28;19952;-88
2023/10/01 02:47:03;;;;;;;;;;;13.80;74.20;;;;;;4134583;28;19913;-87
2023/10/01 02:49:05;;;;;;;;;;;13.70;74.60;;;;;;4139832;28;19933;-86
2023/10/01 02:51:15;;;;;;;;;;;13.80;75.40;;;;;;4154537;28;20351;-88
2023/10/01 02:53:23;;;;;;;;;;;13.80;75.60;;;;;;4151709;28;19929;-88
2023/10/01 02:55:46;;;;;;;;;;;13.70;75.70;;;;;;4153631;28;20420;-87
2023/10/01 02:58:17;;;;;;;;;;;13.80;75.20;;;;;;4140524;28;20359;-87
2023/10/01 03:00:38;;;;;;;;;;;13.80;75.50;;;;;;4152874;28;20621;-87
2023/10/01 03:02:39;;;;;;;;;;;13.90;75.70;;;;;;4137419;28;19921;-87
2023/10/01 03:05:03;;;;;;;;;;;13.80;75.60;;;;;;4145162;28;20387;-86
2023/10/01 03:07:25;;;;;;;;;;;13.80;75.20;;;;;;4150084;28;20369;-86
2023/10/01 03:09:48;;;;;;;;;;;13.80;75.10;;;;;;4138302;28;20263;-86
2023/10/01 03:12:25;;;;;;;;;;;13.80;75.20;;;;;;4145207;28;20528;-87
2023/10/01 03:15:15;;;;;;;;;;;13.80;75.00;;;;;;4150351;28;20330;-87
2023/10/01 03:17:39;;;;;;;;;;;13.80;75.50;;;;;;4138745;28;20347;-87
2023/10/01 03:20:12;;;;;;;;;;;13.80;75.00;;;;;;4132563;28;20335;-88
2023/10/01 03:22:20;;;;;;;;;;;13.80;75.00;;;;;;4152385;28;19949;-87
2023/10/01 03:24:25;;;;;;;;;;;13.80;75.00;;;;;;4136710;28;20279;-88
2023/10/01 03:26:26;;;;;;;;;;;13.80;74.80;;;;;;4150900;28;19928;-88
2023/10/01 03:28:28;;;;;;;;;;;13.80;75.00;;;;;;4156597;28;19917;-87
2023/10/01 03:30:32;;;;;;;;;;;13.90;74.90;;;;;;4137629;28;20027;-87
2023/10/01 03:32:47;;;;;;;;;;;13.80;75.40;;;;;;4147971;28;20294;-88
2023/10/01 03:34:52;;;;;;;;;;;13.80;75.30;;;;;;4138954;28;19913;-86
2023/10/01 03:36:53;;;;;;;;;;;13.90;75.10;;;;;;4121476;28;20299;-87
2023/10/01 03:39:25;;;;;;;;;;;13.90;75.00;;;;;;4138634;28;20059;-87
2023/10/01 03:41:21;;;;;;;;;;;13.90;74.90;;;;;;4151130;28;20369;-87
2023/10/01 03:43:31;;;;;;;;;;;14.00;75.00;;;;;;4152867;28;19991;-87
2023/10/01 03:47:34;;;;;;;;;;;14.00;75.70;;;;;;4149728;28;19996;-87
2023/10/01 03:49:55;;;;;;;;;;;13.90;75.00;;;;;;4136373;28;20330;-87
2023/10/01 03:52:14;;;;;;;;;;;13.90;74.90;;;;;;4149648;28;19929;-88
2023/10/01 03:55:00;;;;;;;;;;;13.90;75.00;;;;;;4138641;28;20362;-87
2023/10/01 03:57:22;;;;;;;;;;;13.80;74.80;;;;;;4137885;28;20280;-86
2023/10/01 03:59:52;;;;;;;;;;;13.90;74.60;;;;;;4155007;28;20466;-86
2023/10/01 04:02:28;;;;;;;;;;;13.90;75.40;;;;;;4152569;28;19928;-87
2023/10/01 04:04:58;;;;;;;;;;;13.90;74.80;;;;;;4136044;28;20736;-87
2023/10/01 04:07:26;;;;;;;;;;;13.90;75.20;;;;;;4133889;28;19972;-87
2023/10/01 04:09:47;;;;;;;;;;;13.90;75.30;;;;;;4150671;28;20283;-87
2023/10/01 04:12:20;;;;;;;;;;;13.90;75.10;;;;;;4138254;28;20281;-86
2023/10/01 04:14:24;;;;;;;;;;;14.00;75.10;;;;;;4138672;28;20501;-87
2023/10/01 04:16:24;;;;;;;;;;;13.90;75.00;;;;;;4149293;28;20011;-87
2023/10/01 04:18:28;;;;;;;;;;;13.90;75.00;;;;;;4137442;28;19925;-87
2023/10/01 04:20:29;;;;;;;;;;;13.90;75.00;;;;;;4133462;28;20301;-87
2023/10/01 04:22:30;;;;;;;;;;;13.90;75.20;;;;;;4135266;28;19928;-86
2023/10/01 04:24:31;;;;;;;;;;;13.90;75.40;;;;;;4119296;28;20861;-87
2023/10/01 04:26:35;;;;;;;;;;;13.90;75.50;;;;;;4154004;28;20375;-86
2023/10/01 04:28:36;;;;;;;;;;;14.00;75.40;;;;;;4119437;28;19945;-86
2023/10/01 04:30:38;;;;;;;;;;;13.90;75.40;;;;;;4150977;28;19994;-86
2023/10/01 04:32:39;;;;;;;;;;;13.90;75.20;;;;;;4135065;28;19917;-87
2023/10/01 04:34:44;;;;;;;;;;;13.80;75.20;;;;;;4151814;28;20295;-87
2023/10/01 04:36:51;;;;;;;;;;;14.00;75.40;;;;;;4153565;28;20381;-86
2023/10/01 04:39:00;;;;;;;;;;;14.00;75.40;;;;;;4153955;28;19928;-87
2023/10/01 04:41:03;;;;;;;;;;;14.00;75.20;;;;;;4134752;28;19925;-86
2023/10/01 04:43:19;;;;;;;;;;;14.00;75.40;;;;;;4151630;28;19919;-87
2023/10/01 04:45:44;;;;;;;;;;;13.90;75.20;;;;;;4152245;28;20000;-87
2023/10/01 04:47:48;;;;;;;;;;;14.00;75.70;;;;;;4135298;28;19917;-86
2023/10/01 04:50:09;;;;;;;;;;;13.90;75.30;;;;;;4137007;28;20616;-87
2023/10/01 04:52:31;;;;;;;;;;;13.90;75.30;;;;;;4135012;28;19924;-87
2023/10/01 04:54:52;;;;;;;;;;;13.90;75.10;;;;;;4129624;28;20371;-87
2023/10/01 04:57:13;;;;;;;;;;;14.00;75.50;;;;;;4141364;28;19913;-87
2023/10/01 04:59:33;;;;;;;;;;;13.90;75.70;;;;;;4136259;28;20318;-87
2023/10/01 05:02:18;;;;;;;;;;;14.00;75.70;;;;;;4136026;28;20174;-87
2023/10/01 05:04:41;;;;;;;;;;;13.90;75.90;;;;;;4132771;28;20306;-87
2023/10/01 05:06:43;;;;;;;;;;;13.90;75.50;;;;;;4152214;28;19922;-86
2023/10/01 05:09:07;;;;;;;;;;;13.80;75.50;;;;;;4142035;28;20313;-87
2023/10/01 05:11:31;;;;;;;;;;;13.90;75.40;;;;;;4136014;28;19935;-87
2023/10/01 05:13:52;;;;;;;;;;;13.90;75.30;;;;;;4152331;28;20315;-86
2023/10/01 05:16:13;;;;;;;;;;;13.90;75.30;;;;;;4149432;28;20008;-86
2023/10/01 05:18:34;;;;;;;;;;;13.90;75.20;;;;;;4149564;28;20487;-86
2023/10/01 05:21:04;;;;;;;;;;;13.90;75.10;;;;;;4146745;28;20879;-86
2023/10/01 05:23:27;;;;;;;;;;;13.90;75.10;;;;;;4146896;28;20651;-87
2023/10/01 05:25:49;;;;;;;;;;;13.90;75.10;;;;;;4149871;28;20084;-86
2023/10/01 05:27:54;;;;;;;;;;;13.90;75.10;;;;;;4150831;28;19928;-86
2023/10/01 05:29:55;;;;;;;;;;;14.00;75.20;;;;;;4134332;28;19980;-87
2023/10/01 05:31:56;;;;;;;;;;;13.90;75.10;;;;;;4151019;28;19924;-87
2023/10/01 05:34:00;;;;;;;;;;;14.00;75.00;;;;;;4142042;28;19914;-89
2023/10/01 05:36:04;;;;;;;;;;;13.90;74.90;;;;;;4144697;28;20438;-88
2023/10/01 05:38:10;;;;;;;;;;;14.00;74.90;;;;;;4133772;28;20027;-87
2023/10/01 05:40:37;;;;;;;;;;;13.90;74.60;;;;;;4137543;28;21295;-88
2023/10/01 05:43:12;;;;;;;;;;;13.90;74.70;;;;;;4141063;28;20350;-88
2023/10/01 05:45:38;;;;;;;;;;;13.90;74.90;;;;;;4135177;28;20889;-88
2023/10/01 05:48:01;;;;;;;;;;;13.90;75.00;;;;;;4144784;28;19923;-87
2023/10/01 05:50:28;;;;;;;;;;;13.90;74.70;;;;;;4151704;28;20263;-88
2023/10/01 05:52:50;;;;;;;;;;;13.90;74.80;;;;;;4150510;28;20366;-88
2023/10/01 05:55:15;;;;;;;;;;;13.80;75.00;;;;;;4149076;28;20378;-86
2023/10/01 05:57:37;;;;;;;;;;;13.90;75.50;;;;;;4131959;28;20502;-88
2023/10/01 06:00:00;;;;;;;;;;;13.80;75.60;;;;;;4131927;28;20299;-87
2023/10/01 06:02:41;;;;;;;;;;;13.90;75.90;;;;;;4149336;28;20341;-87
2023/10/01 06:04:41;;;;;;;;;;;13.80;76.10;;;;;;4144662;28;19926;-86
2023/10/01 06:06:45;;;;;;;;;;;13.80;75.80;;;;;;4130075;28;20270;-87
2023/10/01 06:08:46;;;;;;;;;;;13.80;75.70;;;;;;4152136;28;20290;-87
2023/10/01 06:11:04;;;;;;;;;;;13.90;76.20;;;;;;4155561;28;19956;-87
2023/10/01 06:13:08;;;;;;;;;;;13.90;76.00;;;;;;4129083;28;19913;-86
2023/10/01 06:15:12;;;;;;;;;;;13.90;76.20;;;;;;4135482;28;20008;-87
2023/10/01 06:17:42;;;;;;;;;;;13.90;76.10;;;;;;4136869;28;20414;-89
2023/10/01 06:20:23;;;;;;;;;;;13.70;75.80;;;;;;4151694;28;20517;-87
2023/10/01 06:22:44;;;;;;;;;;;13.90;75.80;;;;;;4150333;28;20882;-87
2023/10/01 06:25:07;;;;;;;;;;;13.90;75.90;;;;;;4151464;28;20622;-86
2023/10/01 06:27:27;;;;;;;;;;;13.90;76.30;;;;;;4149259;28;20458;-87
2023/10/01 06:29:51;;;;;;;;;;;13.90;75.90;;;;;;4150607;28;19982;-86
2023/10/01 06:32:00;;;;;;;;;;;14.00;76.00;;;;;;4129165;28;19921;-86
2023/10/01 06:34:03;;;;;;;;;;;14.10;75.80;;;;;;4149576;28;20323;-87
2023/10/01 06:36:21;;;;;;;;;;;14.00;75.90;;;;;;4147740;28;20401;-88
2023/10/01 06:38:21;;;;;;;;;;;13.90;75.70;;;;;;4150381;28;20698;-86
2023/10/01 06:40:31;;;;;;;;;;;14.10;75.80;;;;;;4148916;28;19933;-88
2023/10/01 06:42:33;;;;;;;;;;;14.00;75.70;;;;;;4135340;28;19913;-88
2023/10/01 06:44:33;;;;;;;;;;;14.00;76.40;;;;;;4135878;28;20401;-87
2023/10/01 06:46:57;;;;;;;;;;;14.00;76.30;;;;;;4151149;28;19948;-88
2023/10/01 06:49:13;;;;;;;;;;;14.00;76.20;;;;;;4086396;28;19919;-88
2023/10/01 06:51:14;;;;;;;;;;;14.00;76.00;;;;;;4082927;28;20447;-87
2023/10/01 06:56:18;;;;;;;;;;;14.00;76.40;;;;;;4086897;28;21738;-87
2023/10/01 07:02:02;;;;;;;;;;;14.10;76.40;;;;;;4090066;28;20013;-86
2023/10/01 07:03:57;;;;;;;;;;;14.10;76.10;;;;;;4087820;28;19923;-86
2023/10/01 07:10:50;;;;;;;;;;;14.20;76.10;;;;;;4503198;22;19929;-89
2023/10/01 07:13:33;;;;;;;;;;;14.20;76.00;;;;;;4149709;28;19921;-90
2023/10/01 07:16:01;;;;;;;;;;;14.20;76.90;;;;;;4159044;28;19966;-90
2023/10/01 07:18:19;;;;;;;;;;;14.30;76.40;;;;;;4135950;28;19921;-90
2023/10/01 07:20:24;;;;;;;;;;;14.40;76.60;;;;;;4126696;28;19950;-90
2023/10/01 07:22:32;;;;;;;;;;;14.30;76.40;;;;;;4134225;28;19921;-89
2023/10/01 07:24:38;;;;;;;;;;;14.40;76.30;;;;;;4139369;28;19979;-88
2023/10/01 07:26:50;;;;;;;;;;;14.40;76.10;;;;;;4142965;28;20047;-91
2023/10/01 07:29:16;;;;;;;;;;;14.40;75.80;;;;;;4139684;28;19914;-90
2023/10/01 07:34:16;;;;;;;;;;;14.50;75.60;;;;;;4132644;28;20283;-89
2023/10/01 07:36:22;;;;;;;;;;;14.60;76.00;;;;;;4101318;28;19931;-91
2023/10/01 07:38:28;;;;;;;;;;;14.60;75.80;;;;;;4118956;28;19933;-90
2023/10/01 07:40:57;;;;;;;;;;;14.60;75.70;;;;;;4092989;28;20043;-89
2023/10/01 07:42:58;;;;;;;;;;;14.60;76.00;;;;;;4096273;28;19918;-90
2023/10/01 07:45:38;;;;;;;;;;;14.70;76.10;;;;;;4110127;28;19918;-89
2023/10/01 07:47:42;;;;;;;;;;;14.70;75.80;;;;;;4104631;28;20108;-91
2023/10/01 07:50:12;;;;;;;;;;;14.70;75.70;;;;;;4122603;28;20025;-90
2023/10/01 07:52:36;;;;;;;;;;;14.80;75.70;;;;;;4101638;28;19915;-91
2023/10/01 07:54:57;;;;;;;;;;;14.80;75.80;;;;;;4086883;28;19918;-89
2023/10/01 07:57:48;;;;;;;;;;;14.90;75.80;;;;;;4101029;28;19918;-89
2023/10/01 08:00:26;;;;;;;;;;;14.90;76.10;;;;;;4062637;29;20018;-89
2023/10/01 08:05:33;;;;;;;;;;;15.00;75.80;;;;;;4069383;29;19962;-90
2023/10/01 08:07:52;;;;;;;;;;;15.00;75.90;;;;;;4042411;28;19919;-89
2023/10/01 08:10:13;;;;;;;;;;;15.20;76.00;;;;;;4087079;28;20008;-89
2023/10/01 08:12:29;;;;;;;;;;;15.10;76.10;;;;;;4089860;28;20369;-90
2023/10/01 08:14:33;;;;;;;;;;;15.20;76.20;;;;;;4119791;28;19914;-89
2023/10/01 08:16:50;;;;;;;;;;;15.20;75.90;;;;;;4091699;28;19974;-89
2023/10/01 08:19:11;;;;;;;;;;;15.20;75.60;;;;;;4074698;29;19922;-90
2023/10/01 08:21:48;;;;;;;;;;;15.20;75.80;;;;;;4105413;28;19918;-89
2023/10/01 08:24:18;;;;;;;;;;;15.20;75.60;;;;;;4092421;28;19927;-89
2023/10/01 08:26:43;;;;;;;;;;;15.30;75.50;;;;;;4099884;28;20391;-89
2023/10/01 08:29:17;;;;;;;;;;;15.30;75.50;;;;;;4091687;28;20428;-90
2023/10/01 08:36:36;;;;;;;;;;;15.40;75.10;;;;;;4127966;28;19958;-89
2023/10/01 08:41:12;;;;;;;;;;;15.50;75.50;;;;;;4173404;28;20313;-91
2023/10/01 08:43:16;;;;;;;;;;;15.50;75.50;;;;;;4145475;28;19925;-91
2023/10/01 08:45:21;;;;;;;;;;;15.50;75.20;;;;;;4158079;28;19979;-89
2023/10/01 08:47:32;;;;;;;;;;;15.50;75.20;;;;;;4168913;28;19925;-89
2023/10/01 08:49:43;;;;;;;;;;;15.60;75.20;;;;;;4163279;28;19913;-89
2023/10/01 08:52:19;;;;;;;;;;;15.60;75.30;;;;;;4156600;28;19917;-90
2023/10/01 08:54:43;;;;;;;;;;;15.70;75.30;;;;;;4164174;28;19963;-91
2023/10/01 08:57:15;;;;;;;;;;;15.70;75.20;;;;;;4156262;28;19921;-90
2023/10/01 08:59:41;;;;;;;;;;;15.80;75.30;;;;;;4152270;28;19964;-91
2023/10/01 09:02:23;;;;;;;;;;;15.80;75.20;;;;;;4172626;28;19924;-90
2023/10/01 09:04:50;;;;;;;;;;;15.80;75.40;;;;;;4156439;28;19917;-90
2023/10/01 09:10:37;;;;;;;;;;;15.90;74.90;;;;;;4133917;28;19921;-92
2023/10/01 09:13:03;;;;;;;;;;;15.90;75.00;;;;;;4132391;28;20604;-89
2023/10/01 09:15:27;;;;;;;;;;;15.90;74.80;;;;;;4122887;28;20486;-89
2023/10/01 09:17:57;;;;;;;;;;;15.90;74.70;;;;;;4127808;28;19945;-90
2023/10/01 09:20:35;;;;;;;;;;;15.90;74.60;;;;;;4133322;28;19980;-90
2023/10/01 09:23:02;;;;;;;;;;;16.00;74.60;;;;;;4120323;28;19923;-90
2023/10/01 09:25:27;;;;;;;;;;;16.00;74.50;;;;;;4115512;28;19922;-90
2023/10/01 09:27:37;;;;;;;;;;;16.00;74.60;;;;;;4132083;28;19917;-90
2023/10/01 09:29:44;;;;;;;;;;;16.00;74.80;;;;;;4120814;28;19918;-89
2023/10/01 09:32:19;;;;;;;;;;;16.10;74.70;;;;;;4123975;28;19922;-89
2023/10/01 09:34:46;;;;;;;;;;;16.00;74.60;;;;;;4124091;28;20046;-89
2023/10/01 09:37:35;;;;;;;;;;;16.10;74.80;;;;;;4119506;28;20658;-89
2023/10/01 09:39:55;;;;;;;;;;;16.20;74.90;;;;;;4123900;28;19917;-88
2023/10/01 09:42:25;;;;;;;;;;;16.20;74.90;;;;;;4136002;28;19917;-90
2023/10/01 09:44:47;;;;;;;;;;;16.20;74.90;;;;;;4138372;28;19921;-91
2023/10/01 09:47:10;;;;;;;;;;;16.30;75.10;;;;;;4151397;28;19913;-89
2023/10/01 09:49:49;;;;;;;;;;;16.30;75.10;;;;;;4162714;28;20671;-91
2023/10/01 09:51:52;;;;;;;;;;;16.30;75.70;;;;;;4135098;28;19928;-90
2023/10/01 09:53:56;;;;;;;;;;;16.40;75.00;;;;;;4154138;28;19994;-90
2023/10/01 09:55:59;;;;;;;;;;;16.50;75.00;;;;;;4168826;28;19913;-89
2023/10/01 09:58:25;;;;;;;;;;;16.70;75.10;;;;;;4154161;28;19928;-91
2023/10/01 10:00:44;;;;;;;;;;;16.60;75.00;;;;;;4157710;28;20583;-89
2023/10/01 10:03:09;;;;;;;;;;;16.70;75.00;;;;;;4165882;28;20287;-90
2023/10/01 10:08:34;;;;;;;;;;;16.70;74.80;;;;;;4172228;28;19927;-91
2023/10/01 10:11:26;;;;;;;;;;;16.80;75.40;;;;;;4148197;28;20497;-91
2023/10/01 10:13:48;;;;;;;;;;;16.80;74.60;;;;;;4165290;28;19927;-90
2023/10/01 10:19:08;;;;;;;;;;;16.80;74.00;;;;;;4142439;28;19940;-91
2023/10/01 10:21:42;;;;;;;;;;;16.90;73.90;;;;;;4169814;23;19933;-90
2023/10/01 10:23:54;;;;;;;;;;;16.90;73.80;;;;;;4117482;28;19972;-90
2023/10/01 10:26:20;;;;;;;;;;;16.90;73.70;;;;;;4149408;28;19936;-90
2023/10/01 10:28:58;;;;;;;;;;;16.80;73.50;;;;;;4136122;28;19964;-91
2023/10/01 10:31:37;;;;;;;;;;;16.90;73.40;;;;;;4105498;28;19928;-91
2023/10/01 10:33:58;;;;;;;;;;;16.90;73.40;;;;;;4121980;28;19922;-90
2023/10/01 10:36:50;;;;;;;;;;;16.90;73.30;;;;;;4136656;28;20581;-90
2023/10/01 10:38:51;;;;;;;;;;;16.90;73.30;;;;;;4107242;28;19976;-91
2023/10/01 10:41:17;;;;;;;;;;;16.90;73.30;;;;;;4126008;28;20299;-91
2023/10/01 10:43:41;;;;;;;;;;;16.90;73.30;;;;;;4137972;28;20375;-90
2023/10/01 10:46:04;;;;;;;;;;;16.90;73.30;;;;;;4135018;28;20395;-90
2023/10/01 10:48:44;;;;;;;;;;;16.90;73.30;;;;;;4124868;28;20127;-91
2023/10/01 10:51:05;;;;;;;;;;;16.90;73.30;;;;;;4120281;28;20392;-90
2023/10/01 10:53:37;;;;;;;;;;;16.90;73.30;;;;;;4125080;28;20360;-91
2023/10/01 10:56:35;;;;;;;;;;;16.90;73.30;;;;;;4122814;28;19921;-91
2023/10/01 10:59:01;;;;;;;;;;;16.80;73.20;;;;;;4132562;28;20349;-90
2023/10/01 11:01:23;;;;;;;;;;;16.90;73.10;;;;;;4120997;28;19929;-90
2023/10/01 11:03:38;;;;;;;;;;;16.90;73.10;;;;;;4118872;28;19924;-91
2023/10/01 11:06:03;;;;;;;;;;;16.80;72.90;;;;;;4126892;28;19980;-91
2023/10/01 11:08:11;;;;;;;;;;;16.80;72.90;;;;;;4109405;28;20397;-91
2023/10/01 11:10:13;;;;;;;;;;;16.80;73.00;;;;;;4121671;28;20029;-90
2023/10/01 11:12:21;;;;;;;;;;;16.80;73.00;;;;;;4123406;28;19921;-89
2023/10/01 11:14:27;;;;;;;;;;;16.90;72.90;;;;;;4120655;28;19918;-90
2023/10/01 11:16:58;;;;;;;;;;;;;;;;;;;;;
2023/10/01 11:22:00;;;;;;;;;;;16.80;73.00;;;;;;4162702;28;19987;-91
2023/10/01 11:24:22;;;;;;;;;;;16.90;73.10;;;;;;4153429;28;19921;-88
2023/10/01 11:26:31;;;;;;;;;;;16.80;73.10;;;;;;4153576;28;19953;-90
2023/10/01 11:29:02;;;;;;;;;;;16.80;73.20;;;;;;4168521;28;19921;-88
2023/10/01 11:31:27;;;;;;;;;;;16.80;73.20;;;;;;4153804;28;20342;-90
2023/10/01 11:36:57;;;;;;;;;;;16.90;73.20;;;;;;4153250;28;19917;-89
2023/10/01 11:39:33;;;;;;;;;;;16.90;73.20;;;;;;4176189;23;19933;-88
2023/10/01 11:41:54;;;;;;;;;;;16.90;73.10;;;;;;4194459;23;19972;-88
2023/10/01 11:47:00;;;;;;;;;;;16.90;73.00;;;;;;4085168;28;20036;-89
2023/10/01 11:52:46;;;;;;;;;;;;;;;;;;;;;
2023/10/01 12:03:00;;;;;;;;;;;16.90;73.00;;;;;;4203519;28;19920;-86
2023/10/01 12:05:22;;;;;;;;;;;16.90;73.20;;;;;;4202646;28;20283;-89
2023/10/01 12:07:32;;;;;;;;;;;16.90;73.20;;;;;;4185479;28;19928;-88
2023/10/01 12:09:53;;;;;;;;;;;16.80;73.10;;;;;;4190029;28;20310;-88
2023/10/01 12:12:14;;;;;;;;;;;16.80;73.10;;;;;;4203279;28;20286;-88
2023/10/01 12:14:52;;;;;;;;;;;16.90;73.40;;;;;;4188659;28;20231;-87
2023/10/01 12:17:15;;;;;;;;;;;16.90;73.40;;;;;;4201691;28;20345;-91
2023/10/01 12:19:35;;;;;;;;;;;16.90;73.40;;;;;;4190532;28;20433;-88
2023/10/01 12:22:05;;;;;;;;;;;16.80;73.50;;;;;;4186662;28;20317;-87
2023/10/01 12:24:28;;;;;;;;;;;16.90;73.50;;;;;;4202923;28;20949;-86
2023/10/01 12:26:49;;;;;;;;;;;16.80;73.30;;;;;;4200753;28;20321;-88
2023/10/01 12:31:08;;;;;;;;;;;16.90;73.40;;;;;;4204819;28;19920;-88
2023/10/01 12:33:10;;;;;;;;;;;16.90;73.60;;;;;;4171626;28;20182;-88
2023/10/01 12:35:27;;;;;;;;;;;16.90;73.60;;;;;;4201077;28;20384;-87
2023/10/01 12:37:37;;;;;;;;;;;16.90;73.70;;;;;;4166763;28;19917;-91
2023/10/01 12:40:14;;;;;;;;;;;16.90;73.50;;;;;;4188207;28;20298;-88
2023/10/01 12:42:37;;;;;;;;;;;16.90;73.70;;;;;;4192477;28;20403;-88
2023/10/01 12:45:13;;;;;;;;;;;16.90;73.80;;;;;;4191465;28;20332;-89
2023/10/01 12:47:40;;;;;;;;;;;17.00;73.90;;;;;;4200671;28;20377;-89
2023/10/01 12:50:09;;;;;;;;;;;16.90;74.00;;;;;;4188425;28;20368;-89
2023/10/01 12:52:30;;;;;;;;;;;17.00;74.20;;;;;;4190353;28;20274;-88
2023/10/01 12:54:50;;;;;;;;;;;17.00;73.90;;;;;;4188131;28;21388;-88
2023/10/01 12:57:22;;;;;;;;;;;17.00;73.90;;;;;;4204644;28;20265;-88
2023/10/01 12:59:49;;;;;;;;;;;17.10;74.10;;;;;;4191140;28;20401;-87
2023/10/01 13:01:53;;;;;;;;;;;17.10;74.10;;;;;;4200265;28;19913;-88
2023/10/01 13:03:53;;;;;;;;;;;17.00;73.90;;;;;;4200462;28;19924;-88
2023/10/01 13:06:14;;;;;;;;;;;16.90;73.80;;;;;;4194555;28;19926;-86
2023/10/01 13:08:35;;;;;;;;;;;17.00;73.90;;;;;;4184591;28;20381;-87
2023/10/01 13:10:59;;;;;;;;;;;17.00;74.10;;;;;;4197870;28;20492;-87
2023/10/01 13:13:02;;;;;;;;;;;16.90;73.90;;;;;;4169172;28;19921;-88
2023/10/01 13:15:40;;;;;;;;;;;16.90;73.80;;;;;;4187337;28;20625;-88
2023/10/01 13:18:02;;;;;;;;;;;16.90;73.80;;;;;;4194071;28;20015;-87
2023/10/01 13:20:25;;;;;;;;;;;16.90;74.00;;;;;;4199870;28;19920;-87
2023/10/01 13:22:51;;;;;;;;;;;16.80;73.90;;;;;;4201347;28;20434;-88
2023/10/01 13:25:18;;;;;;;;;;;16.80;73.80;;;;;;4200277;28;19916;-87
2023/10/01 13:27:22;;;;;;;;;;;16.80;73.80;;;;;;4199910;28;19920;-88
2023/10/01 13:29:28;;;;;;;;;;;16.70;73.80;;;;;;4185941;28;19920;-89
2023/10/01 13:33:53;;;;;;;;;;;16.70;73.70;;;;;;4203980;28;19916;-87
2023/10/01 13:35:52;;;;;;;;;;;16.60;73.70;;;;;;4204974;28;19920;-87
2023/10/01 13:38:15;;;;;;;;;;;16.70;73.90;;;;;;4187011;28;20610;-86
2023/10/01 13:40:29;;;;;;;;;;;16.60;73.90;;;;;;4183818;28;19924;-89
2023/10/01 14:09:47;;;;;;;;;;;16.60;74.90;;;;;;4208748;28;20003;-88
2023/10/01 14:12:05;;;;;;;;;;;16.40;75.00;;;;;;4199429;28;20285;-88
2023/10/01 14:14:33;;;;;;;;;;;16.40;75.10;;;;;;4204043;28;20366;-87
2023/10/01 14:16:34;;;;;;;;;;;16.40;74.80;;;;;;4189395;28;20481;-87
2023/10/01 14:18:34;;;;;;;;;;;16.40;74.70;;;;;;4193080;28;19931;-88
2023/10/01 14:20:38;;;;;;;;;;;16.40;74.80;;;;;;4204895;28;19928;-87
2023/10/01 14:22:49;;;;;;;;;;;16.40;75.00;;;;;;4186803;28;19926;-89
2023/10/01 14:25:20;;;;;;;;;;;16.40;75.30;;;;;;4164109;28;20286;-87
2023/10/01 14:28:19;;;;;;;;;;;16.40;75.20;;;;;;4201302;28;19970;-86
2023/10/01 14:30:50;;;;;;;;;;;16.40;75.20;;;;;;4186973;28;19920;-87
2023/10/01 14:33:23;;;;;;;;;;;16.40;75.80;;;;;;4187650;28;20398;-89
2023/10/01 14:35:47;;;;;;;;;;;16.40;75.50;;;;;;4203467;28;19917;-87
2023/10/01 14:38:04;;;;;;;;;;;16.40;75.30;;;;;;4171744;28;20011;-88
2023/10/01 14:40:13;;;;;;;;;;;16.40;75.30;;;;;;4185552;28;19940;-89
2023/10/01 14:42:18;;;;;;;;;;;16.40;75.70;;;;;;4187387;28;19924;-90
2023/10/01 14:44:42;;;;;;;;;;;16.40;75.50;;;;;;4205705;28;19912;-87
2023/10/01 14:47:04;;;;;;;;;;;16.40;75.70;;;;;;4181826;28;19913;-88
2023/10/01 14:49:24;;;;;;;;;;;16.40;75.60;;;;;;4185765;28;19977;-86
2023/10/01 14:51:48;;;;;;;;;;;16.30;75.60;;;;;;4202896;28;19916;-88
2023/10/01 14:54:16;;;;;;;;;;;16.30;75.40;;;;;;4184829;28;19979;-86
2023/10/01 14:56:36;;;;;;;;;;;16.40;75.30;;;;;;4191239;28;19920;-89
2023/10/01 14:59:04;;;;;;;;;;;16.30;75.50;;;;;;4205199;28;19922;-87
2023/10/01 15:01:08;;;;;;;;;;;16.30;75.40;;;;;;4187094;28;19925;-87